sensor_id;sensor_type;location;lat;lon;timestamp;temperature;humidity
66119;DHT22;52912;48.564;9.302;2023-03-01T00:01:04;-1.54;83.37
66119;DHT22;52912;48.564;9.302;2023-03-01T00:03:29;-1.57;83.42
66119;DHT22;52912;48.564;9.302;2023-03-01T00:05:57;-1.56;83.54
66119;DHT22;52912;48.564;9.302;2023-03-01T00:08:22;-1.59;83.61
66119;DHT22;52912;48.564;9.302;2023-03-01T00:10:48;-1.53;83.54
66119;DHT22;52912;48.564;9.302;2023-03-01T00:13:13;-1.53;83.46
66119;DHT22;52912;48.564;9.302;2023-03-01T00:15:39;-1.56;83.45
66119;DHT22;52912;48.564;9.302;2023-03-01T00:18:04;-1.57;83.42
66119;DHT22;52912;48.564;9.302;2023-03-01T00:20:30;-1.57;83.54
66119;DHT22;52912;48.564;9.302;2023-03-01T00:22:57;-1.59;83.63
66119;DHT22;52912;48.564;9.302;2023-03-01T00:25:22;-1.61;83.67
66119;DHT22;52912;48.564;9.302;2023-03-01T00:27:47;-1.60;83.64
66119;DHT22;52912;48.564;9.302;2023-03-01T00:30:13;-1.61;83.56
66119;DHT22;52912;48.564;9.302;2023-03-01T00:32:39;-1.59;83.49
66119;DHT22;52912;48.564;9.302;2023-03-01T00:35:04;-1.57;83.38
66119;DHT22;52912;48.564;9.302;2023-03-01T00:37:30;-1.56;83.46
66119;DHT22;52912;48.564;9.302;2023-03-01T00:39:57;-1.57;83.29
66119;DHT22;52912;48.564;9.302;2023-03-01T00:42:22;-1.59;83.53
66119;DHT22;52912;48.564;9.302;2023-03-01T00:44:47;-1.66;83.61
66119;DHT22;52912;48.564;9.302;2023-03-01T00:47:13;-1.67;83.69
66119;DHT22;52912;48.564;9.302;2023-03-01T00:49:38;-1.70;83.84
66119;DHT22;52912;48.564;9.302;2023-03-01T00:52:04;-1.77;84.08
66119;DHT22;52912;48.564;9.302;2023-03-01T00:54:29;-1.78;84.15
66119;DHT22;52912;48.564;9.302;2023-03-01T00:56:56;-1.82;84.30
66119;DHT22;52912;48.564;9.302;2023-03-01T00:59:22;-1.81;84.29
66119;DHT22;52912;48.564;9.302;2023-03-01T01:01:47;-1.81;84.42
66119;DHT22;52912;48.564;9.302;2023-03-01T01:04:13;-1.85;84.46
66119;DHT22;52912;48.564;9.302;2023-03-01T01:06:41;-1.87;84.52
66119;DHT22;52912;48.564;9.302;2023-03-01T01:09:08;-1.85;84.59
66119;DHT22;52912;48.564;9.302;2023-03-01T01:11:35;-1.84;84.57
66119;DHT22;52912;48.564;9.302;2023-03-01T01:14:05;-1.85;84.59
66119;DHT22;52912;48.564;9.302;2023-03-01T01:16:30;-1.87;84.62
66119;DHT22;52912;48.564;9.302;2023-03-01T01:18:56;-1.87;84.63
66119;DHT22;52912;48.564;9.302;2023-03-01T01:21:23;-1.82;84.56
66119;DHT22;52912;48.564;9.302;2023-03-01T01:23:49;-1.87;84.61
66119;DHT22;52912;48.564;9.302;2023-03-01T01:26:17;-1.84;84.68
66119;DHT22;52912;48.564;9.302;2023-03-01T01:28:42;-1.87;84.66
66119;DHT22;52912;48.564;9.302;2023-03-01T01:31:09;-1.85;84.74
66119;DHT22;52912;48.564;9.302;2023-03-01T01:33:35;-1.85;84.80
66119;DHT22;52912;48.564;9.302;2023-03-01T01:36:00;-1.87;84.99
66119;DHT22;52912;48.564;9.302;2023-03-01T01:38:26;-1.82;84.89
66119;DHT22;52912;48.564;9.302;2023-03-01T01:40:53;-1.81;84.90
66119;DHT22;52912;48.564;9.302;2023-03-01T01:43:21;-1.81;84.79
66119;DHT22;52912;48.564;9.302;2023-03-01T01:45:48;-1.74;84.79
66119;DHT22;52912;48.564;9.302;2023-03-01T01:48:19;-1.67;84.61
66119;DHT22;52912;48.564;9.302;2023-03-01T01:50:45;-1.59;84.69
66119;DHT22;52912;48.564;9.302;2023-03-01T01:53:17;-1.50;84.39
66119;DHT22;52912;48.564;9.302;2023-03-01T01:55:45;-1.40;83.98
66119;DHT22;52912;48.564;9.302;2023-03-01T01:58:15;-1.32;83.91
66119;DHT22;52912;48.564;9.302;2023-03-01T02:00:43;-1.31;83.58
66119;DHT22;52912;48.564;9.302;2023-03-01T02:03:13;-1.26;83.71
66119;DHT22;52912;48.564;9.302;2023-03-01T02:05:44;-1.22;83.59
66119;DHT22;52912;48.564;9.302;2023-03-01T02:08:13;-1.31;83.73
66119;DHT22;52912;48.564;9.302;2023-03-01T02:10:40;-1.29;83.84
66119;DHT22;52912;48.564;9.302;2023-03-01T02:13:06;-1.31;84.01
66119;DHT22;52912;48.564;9.302;2023-03-01T02:15:33;-1.33;84.02
66119;DHT22;52912;48.564;9.302;2023-03-01T02:17:58;-1.28;83.78
66119;DHT22;52912;48.564;9.302;2023-03-01T02:20:28;-1.26;83.85
66119;DHT22;52912;48.564;9.302;2023-03-01T02:22:59;-1.24;83.88
66119;DHT22;52912;48.564;9.302;2023-03-01T02:25:36;-1.28;83.96
66119;DHT22;52912;48.564;9.302;2023-03-01T02:28:10;-1.31;84.00
66119;DHT22;52912;48.564;9.302;2023-03-01T02:30:39;-1.11;83.71
66119;DHT22;52912;48.564;9.302;2023-03-01T02:33:04;-1.20;83.66
66119;DHT22;52912;48.564;9.302;2023-03-01T02:35:33;-1.20;83.61
66119;DHT22;52912;48.564;9.302;2023-03-01T02:37:59;-1.16;83.73
66119;DHT22;52912;48.564;9.302;2023-03-01T02:40:28;-1.15;83.56
66119;DHT22;52912;48.564;9.302;2023-03-01T02:42:56;-1.15;83.45
66119;DHT22;52912;48.564;9.302;2023-03-01T02:45:23;-1.08;83.43
66119;DHT22;52912;48.564;9.302;2023-03-01T02:47:52;-1.13;83.48
66119;DHT22;52912;48.564;9.302;2023-03-01T02:50:47;-1.13;83.52
66119;DHT22;52912;48.564;9.302;2023-03-01T02:53:17;-1.20;83.88
66119;DHT22;52912;48.564;9.302;2023-03-01T02:55:47;-1.19;83.91
66119;DHT22;52912;48.564;9.302;2023-03-01T02:58:12;-1.09;83.61
66119;DHT22;52912;48.564;9.302;2023-03-01T03:00:40;-1.13;83.64
66119;DHT22;52912;48.564;9.302;2023-03-01T03:03:08;-0.99;83.61
66119;DHT22;52912;48.564;9.302;2023-03-01T03:05:34;-0.95;83.40
66119;DHT22;52912;48.564;9.302;2023-03-01T03:08:02;-0.90;82.99
66119;DHT22;52912;48.564;9.302;2023-03-01T03:10:29;-1.04;83.34
66119;DHT22;52912;48.564;9.302;2023-03-01T03:12:58;-0.95;83.07
66119;DHT22;52912;48.564;9.302;2023-03-01T03:15:25;-0.87;82.73
66119;DHT22;52912;48.564;9.302;2023-03-01T03:17:52;-0.90;82.78
66119;DHT22;52912;48.564;9.302;2023-03-01T03:20:21;-0.83;82.62
66119;DHT22;52912;48.564;9.302;2023-03-01T03:22:49;-0.80;82.63
66119;DHT22;52912;48.564;9.302;2023-03-01T03:25:16;-0.80;82.57
66119;DHT22;52912;48.564;9.302;2023-03-01T03:27:43;-0.79;82.64
66119;DHT22;52912;48.564;9.302;2023-03-01T03:30:11;-0.87;82.96
66119;DHT22;52912;48.564;9.302;2023-03-01T03:32:37;-1.01;83.21
66119;DHT22;52912;48.564;9.302;2023-03-01T03:35:03;-1.09;83.63
66119;DHT22;52912;48.564;9.302;2023-03-01T03:37:30;-0.98;83.69
66119;DHT22;52912;48.564;9.302;2023-03-01T03:39:56;-1.05;83.39
66119;DHT22;52912;48.564;9.302;2023-03-01T03:42:21;-1.05;83.52
66119;DHT22;52912;48.564;9.302;2023-03-01T03:44:47;-1.04;83.67
66119;DHT22;52912;48.564;9.302;2023-03-01T03:47:12;-1.07;83.70
66119;DHT22;52912;48.564;9.302;2023-03-01T03:49:37;-0.98;83.75
66119;DHT22;52912;48.564;9.302;2023-03-01T03:52:03;-0.87;83.22
66119;DHT22;52912;48.564;9.302;2023-03-01T03:54:30;-0.95;83.56
66119;DHT22;52912;48.564;9.302;2023-03-01T03:56:55;-0.95;83.71
66119;DHT22;52912;48.564;9.302;2023-03-01T03:59:21;-0.88;83.45
66119;DHT22;52912;48.564;9.302;2023-03-01T04:01:46;-0.77;83.14
66119;DHT22;52912;48.564;9.302;2023-03-01T04:04:12;-0.71;82.95
66119;DHT22;52912;48.564;9.302;2023-03-01T04:06:37;-0.74;82.97
66119;DHT22;52912;48.564;9.302;2023-03-01T04:09:03;-0.81;83.17
66119;DHT22;52912;48.564;9.302;2023-03-01T04:11:29;-0.76;83.41
66119;DHT22;52912;48.564;9.302;2023-03-01T04:13:57;-0.70;83.10
66119;DHT22;52912;48.564;9.302;2023-03-01T04:16:23;-0.71;82.95
66119;DHT22;52912;48.564;9.302;2023-03-01T04:18:48;-0.70;82.70
66119;DHT22;52912;48.564;9.302;2023-03-01T04:21:14;-0.70;82.95
66119;DHT22;52912;48.564;9.302;2023-03-01T04:23:40;-0.64;82.82
66119;DHT22;52912;48.564;9.302;2023-03-01T04:26:05;-0.76;83.06
66119;DHT22;52912;48.564;9.302;2023-03-01T04:28:34;-0.80;83.53
66119;DHT22;52912;48.564;9.302;2023-03-01T04:31:03;-0.74;83.42
66119;DHT22;52912;48.564;9.302;2023-03-01T04:33:28;-0.77;83.39
66119;DHT22;52912;48.564;9.302;2023-03-01T04:35:54;-0.71;83.33
66119;DHT22;52912;48.564;9.302;2023-03-01T04:38:20;-0.73;83.25
66119;DHT22;52912;48.564;9.302;2023-03-01T04:40:45;-0.67;83.23
66119;DHT22;52912;48.564;9.302;2023-03-01T04:43:11;-0.66;83.17
66119;DHT22;52912;48.564;9.302;2023-03-01T04:45:38;-0.63;83.16
66119;DHT22;52912;48.564;9.302;2023-03-01T04:48:04;-0.69;83.30
66119;DHT22;52912;48.564;9.302;2023-03-01T04:50:30;-0.76;83.50
66119;DHT22;52912;48.564;9.302;2023-03-01T04:52:55;-0.79;83.38
66119;DHT22;52912;48.564;9.302;2023-03-01T04:55:21;-0.81;83.80
66119;DHT22;52912;48.564;9.302;2023-03-01T04:57:46;-0.81;83.70
66119;DHT22;52912;48.564;9.302;2023-03-01T05:00:14;-0.90;83.71
66119;DHT22;52912;48.564;9.302;2023-03-01T05:02:41;-0.95;84.05
66119;DHT22;52912;48.564;9.302;2023-03-01T05:05:06;-0.85;84.05
66119;DHT22;52912;48.564;9.302;2023-03-01T05:07:32;-0.85;83.97
66119;DHT22;52912;48.564;9.302;2023-03-01T05:09:57;-0.81;84.07
66119;DHT22;52912;48.564;9.302;2023-03-01T05:12:23;-0.74;83.51
66119;DHT22;52912;48.564;9.302;2023-03-01T05:14:48;-0.80;83.70
66119;DHT22;52912;48.564;9.302;2023-03-01T05:17:14;-0.83;83.96
66119;DHT22;52912;48.564;9.302;2023-03-01T05:19:40;-0.84;83.94
66119;DHT22;52912;48.564;9.302;2023-03-01T05:22:06;-0.84;84.12
66119;DHT22;52912;48.564;9.302;2023-03-01T05:24:33;-0.74;83.91
66119;DHT22;52912;48.564;9.302;2023-03-01T05:26:58;-0.67;83.90
66119;DHT22;52912;48.564;9.302;2023-03-01T05:29:25;-0.67;83.82
66119;DHT22;52912;48.564;9.302;2023-03-01T05:31:51;-0.62;83.87
66119;DHT22;52912;48.564;9.302;2023-03-01T05:34:17;-0.70;83.95
66119;DHT22;52912;48.564;9.302;2023-03-01T05:36:44;-0.62;83.99
66119;DHT22;52912;48.564;9.302;2023-03-01T05:39:09;-0.57;83.61
66119;DHT22;52912;48.564;9.302;2023-03-01T05:41:35;-0.54;83.60
66119;DHT22;52912;48.564;9.302;2023-03-01T05:44:00;-0.64;83.84
66119;DHT22;52912;48.564;9.302;2023-03-01T05:46:26;-0.74;84.05
66119;DHT22;52912;48.564;9.302;2023-03-01T05:48:51;-0.71;84.10
66119;DHT22;52912;48.564;9.302;2023-03-01T05:51:17;-0.71;84.24
66119;DHT22;52912;48.564;9.302;2023-03-01T05:53:43;-0.66;84.05
66119;DHT22;52912;48.564;9.302;2023-03-01T05:56:09;-0.73;84.22
66119;DHT22;52912;48.564;9.302;2023-03-01T05:58:34;-0.69;84.07
66119;DHT22;52912;48.564;9.302;2023-03-01T06:01:00;-0.66;84.53
66119;DHT22;52912;48.564;9.302;2023-03-01T06:03:25;-0.62;84.20
66119;DHT22;52912;48.564;9.302;2023-03-01T06:05:55;-0.59;84.03
66119;DHT22;52912;48.564;9.302;2023-03-01T06:08:21;-0.60;84.08
66119;DHT22;52912;48.564;9.302;2023-03-01T06:10:48;-0.69;84.23
66119;DHT22;52912;48.564;9.302;2023-03-01T06:13:13;-0.64;84.33
66119;DHT22;52912;48.564;9.302;2023-03-01T06:15:38;-0.67;84.29
66119;DHT22;52912;48.564;9.302;2023-03-01T06:18:04;-0.66;84.39
66119;DHT22;52912;48.564;9.302;2023-03-01T06:20:29;-0.67;84.16
66119;DHT22;52912;48.564;9.302;2023-03-01T06:22:55;-0.74;84.28
66119;DHT22;52912;48.564;9.302;2023-03-01T06:25:23;-0.83;84.42
66119;DHT22;52912;48.564;9.302;2023-03-01T06:27:50;-0.87;84.61
66119;DHT22;52912;48.564;9.302;2023-03-01T06:30:18;-0.85;84.67
66119;DHT22;52912;48.564;9.302;2023-03-01T06:32:44;-0.94;84.74
66119;DHT22;52912;48.564;9.302;2023-03-01T06:35:10;-0.91;84.87
66119;DHT22;52912;48.564;9.302;2023-03-01T06:37:35;-0.92;84.92
66119;DHT22;52912;48.564;9.302;2023-03-01T06:40:01;-0.88;84.79
66119;DHT22;52912;48.564;9.302;2023-03-01T06:42:26;-0.80;84.55
66119;DHT22;52912;48.564;9.302;2023-03-01T06:44:53;-0.69;84.18
66119;DHT22;52912;48.564;9.302;2023-03-01T06:47:19;-0.63;83.83
66119;DHT22;52912;48.564;9.302;2023-03-01T06:49:44;-0.60;83.75
66119;DHT22;52912;48.564;9.302;2023-03-01T06:52:09;-0.60;83.94
66119;DHT22;52912;48.564;9.302;2023-03-01T06:54:35;-0.66;84.11
66119;DHT22;52912;48.564;9.302;2023-03-01T06:57:00;-0.69;84.29
66119;DHT22;52912;48.564;9.302;2023-03-01T06:59:26;-0.63;84.27
66119;DHT22;52912;48.564;9.302;2023-03-01T07:01:53;-0.52;83.91
66119;DHT22;52912;48.564;9.302;2023-03-01T07:04:18;-0.45;83.50
66119;DHT22;52912;48.564;9.302;2023-03-01T07:06:44;-0.15;82.87
66119;DHT22;52912;48.564;9.302;2023-03-01T07:09:09;-0.25;82.69
66119;DHT22;52912;48.564;9.302;2023-03-01T07:11:34;-0.26;83.08
66119;DHT22;52912;48.564;9.302;2023-03-01T07:14:00;-0.30;83.12
66119;DHT22;52912;48.564;9.302;2023-03-01T07:16:25;-0.04;82.32
66119;DHT22;52912;48.564;9.302;2023-03-01T07:18:52;-0.15;82.39
66119;DHT22;52912;48.564;9.302;2023-03-01T07:21:18;0.00;82.01
66119;DHT22;52912;48.564;9.302;2023-03-01T07:23:43;0.09;81.89
66119;DHT22;52912;48.564;9.302;2023-03-01T07:26:09;0.21;81.57
66119;DHT22;52912;48.564;9.302;2023-03-01T07:28:34;0.34;81.23
66119;DHT22;52912;48.564;9.302;2023-03-01T07:31:00;0.41;80.88
66119;DHT22;52912;48.564;9.302;2023-03-01T07:33:26;0.50;80.52
66119;DHT22;52912;48.564;9.302;2023-03-01T07:35:57;0.64;80.43
66119;DHT22;52912;48.564;9.302;2023-03-01T07:38:22;0.89;79.85
66119;DHT22;52912;48.564;9.302;2023-03-01T07:40:48;1.06;78.95
66119;DHT22;52912;48.564;9.302;2023-03-01T07:43:13;0.89;79.04
66119;DHT22;52912;48.564;9.302;2023-03-01T07:45:39;0.85;79.15
66119;DHT22;52912;48.564;9.302;2023-03-01T07:48:04;0.92;79.19
66119;DHT22;52912;48.564;9.302;2023-03-01T07:50:30;1.10;78.75
66119;DHT22;52912;48.564;9.302;2023-03-01T07:52:56;1.01;78.56
66119;DHT22;52912;48.564;9.302;2023-03-01T07:55:22;1.00;78.46
66119;DHT22;52912;48.564;9.302;2023-03-01T07:57:47;1.35;78.16
66119;DHT22;52912;48.564;9.302;2023-03-01T08:00:13;1.44;77.35
66119;DHT22;52912;48.564;9.302;2023-03-01T08:02:39;1.47;77.17
66119;DHT22;52912;48.564;9.302;2023-03-01T08:05:05;1.51;77.45
66119;DHT22;52912;48.564;9.302;2023-03-01T08:07:30;1.33;77.72
66119;DHT22;52912;48.564;9.302;2023-03-01T08:09:57;1.40;77.71
66119;DHT22;52912;48.564;9.302;2023-03-01T08:15:02;1.99;76.15
66119;DHT22;52912;48.564;9.302;2023-03-01T08:17:27;2.23;75.30
66119;DHT22;52912;48.564;9.302;2023-03-01T08:19:53;2.31;75.01
66119;DHT22;52912;48.564;9.302;2023-03-01T08:22:18;2.37;75.10
66119;DHT22;52912;48.564;9.302;2023-03-01T08:24:43;2.58;74.42
66119;DHT22;52912;48.564;9.302;2023-03-01T08:27:10;2.49;73.39
66119;DHT22;52912;48.564;9.302;2023-03-01T08:29:36;2.73;73.31
66119;DHT22;52912;48.564;9.302;2023-03-01T08:32:01;2.53;73.82
66119;DHT22;52912;48.564;9.302;2023-03-01T08:34:27;2.51;73.85
66119;DHT22;52912;48.564;9.302;2023-03-01T08:36:52;2.21;74.57
66119;DHT22;52912;48.564;9.302;2023-03-01T08:39:19;2.18;74.83
66119;DHT22;52912;48.564;9.302;2023-03-01T08:41:45;2.51;73.81
66119;DHT22;52912;48.564;9.302;2023-03-01T08:44:13;2.52;74.22
66119;DHT22;52912;48.564;9.302;2023-03-01T08:46:40;2.34;74.49
66119;DHT22;52912;48.564;9.302;2023-03-01T08:49:07;2.63;73.83
66119;DHT22;52912;48.564;9.302;2023-03-01T08:51:33;3.11;73.16
66119;DHT22;52912;48.564;9.302;2023-03-01T08:53:58;3.35;72.25
66119;DHT22;52912;48.564;9.302;2023-03-01T08:56:24;3.17;71.84
66119;DHT22;52912;48.564;9.302;2023-03-01T08:58:49;3.16;72.02
66119;DHT22;52912;48.564;9.302;2023-03-01T09:01:18;3.30;71.07
66119;DHT22;52912;48.564;9.302;2023-03-01T09:03:44;3.38;71.83
66119;DHT22;52912;48.564;9.302;2023-03-01T09:06:10;3.48;70.91
66119;DHT22;52912;48.564;9.302;2023-03-01T09:08:37;3.48;70.76
66119;DHT22;52912;48.564;9.302;2023-03-01T09:11:04;3.82;70.53
66119;DHT22;52912;48.564;9.302;2023-03-01T09:13:29;4.25;69.17
66119;DHT22;52912;48.564;9.302;2023-03-01T09:15:55;3.94;69.10
66119;DHT22;52912;48.564;9.302;2023-03-01T09:18:22;3.86;69.27
66119;DHT22;52912;48.564;9.302;2023-03-01T09:20:47;4.01;69.51
66119;DHT22;52912;48.564;9.302;2023-03-01T09:23:13;3.69;68.48
66119;DHT22;52912;48.564;9.302;2023-03-01T09:25:38;4.30;68.27
66119;DHT22;52912;48.564;9.302;2023-03-01T09:28:04;4.15;67.75
66119;DHT22;52912;48.564;9.302;2023-03-01T09:30:29;4.90;67.59
66119;DHT22;52912;48.564;9.302;2023-03-01T09:32:56;4.98;66.89
66119;DHT22;52912;48.564;9.302;2023-03-01T09:35:23;4.69;66.94
66119;DHT22;52912;48.564;9.302;2023-03-01T09:37:48;4.87;66.23
66119;DHT22;52912;48.564;9.302;2023-03-01T09:40:16;4.52;67.05
66119;DHT22;52912;48.564;9.302;2023-03-01T09:42:48;4.46;67.56
66119;DHT22;52912;48.564;9.302;2023-03-01T09:45:25;4.34;67.61
66119;DHT22;52912;48.564;9.302;2023-03-01T09:47:51;4.96;67.10
66119;DHT22;52912;48.564;9.302;2023-03-01T09:50:18;5.39;65.43
66119;DHT22;52912;48.564;9.302;2023-03-01T09:52:48;5.27;64.67
66119;DHT22;52912;48.564;9.302;2023-03-01T09:55:20;5.03;65.79
66119;DHT22;52912;48.564;9.302;2023-03-01T09:57:50;5.13;65.03
66119;DHT22;52912;48.564;9.302;2023-03-01T10:00:30;4.97;65.87
66119;DHT22;52912;48.564;9.302;2023-03-01T10:03:03;4.87;65.95
66119;DHT22;52912;48.564;9.302;2023-03-01T10:05:38;4.80;65.84
66119;DHT22;52912;48.564;9.302;2023-03-01T10:08:34;4.93;65.90
66119;DHT22;52912;48.564;9.302;2023-03-01T10:11:00;5.58;65.05
66119;DHT22;52912;48.564;9.302;2023-03-01T10:13:31;5.04;65.12
66119;DHT22;52912;48.564;9.302;2023-03-01T10:16:03;5.14;65.00
66119;DHT22;52912;48.564;9.302;2023-03-01T10:18:30;5.59;63.83
66119;DHT22;52912;48.564;9.302;2023-03-01T10:20:59;6.43;62.30
66119;DHT22;52912;48.564;9.302;2023-03-01T10:23:28;6.18;62.00
66119;DHT22;52912;48.564;9.302;2023-03-01T10:26:09;6.11;62.12
66119;DHT22;52912;48.564;9.302;2023-03-01T10:28:47;6.11;61.16
66119;DHT22;52912;48.564;9.302;2023-03-01T10:31:19;5.95;62.06
66119;DHT22;52912;48.564;9.302;2023-03-01T10:33:45;6.33;61.73
66119;DHT22;52912;48.564;9.302;2023-03-01T10:36:10;6.95;59.82
66119;DHT22;52912;48.564;9.302;2023-03-01T10:38:49;7.23;59.49
66119;DHT22;52912;48.564;9.302;2023-03-01T10:41:15;7.73;58.91
66119;DHT22;52912;48.564;9.302;2023-03-01T10:43:44;7.78;59.34
66119;DHT22;52912;48.564;9.302;2023-03-01T10:46:23;7.50;58.41
66119;DHT22;52912;48.564;9.302;2023-03-01T10:49:06;6.97;59.15
66119;DHT22;52912;48.564;9.302;2023-03-01T10:51:32;6.88;60.44
66119;DHT22;52912;48.564;9.302;2023-03-01T10:53:59;7.50;59.40
66119;DHT22;52912;48.564;9.302;2023-03-01T10:56:24;7.67;58.01
66119;DHT22;52912;48.564;9.302;2023-03-01T10:58:58;7.69;58.18
66119;DHT22;52912;48.564;9.302;2023-03-01T11:01:26;7.32;59.38
66119;DHT22;52912;48.564;9.302;2023-03-01T11:04:09;8.12;57.73
66119;DHT22;52912;48.564;9.302;2023-03-01T11:06:36;7.88;57.84
66119;DHT22;52912;48.564;9.302;2023-03-01T11:09:14;7.71;57.77
66119;DHT22;52912;48.564;9.302;2023-03-01T11:11:40;8.67;56.15
66119;DHT22;52912;48.564;9.302;2023-03-01T11:14:12;8.95;54.88
66119;DHT22;52912;48.564;9.302;2023-03-01T11:16:40;8.78;55.16
66119;DHT22;52912;48.564;9.302;2023-03-01T11:19:18;8.35;55.77
66119;DHT22;52912;48.564;9.302;2023-03-01T11:21:52;8.64;55.94
66119;DHT22;52912;48.564;9.302;2023-03-01T11:24:25;7.99;56.62
66119;DHT22;52912;48.564;9.302;2023-03-01T11:26:54;8.37;56.56
66119;DHT22;52912;48.564;9.302;2023-03-01T11:29:26;8.37;56.98
66119;DHT22;52912;48.564;9.302;2023-03-01T11:31:54;8.60;55.82
66119;DHT22;52912;48.564;9.302;2023-03-01T11:34:27;8.74;55.85
66119;DHT22;52912;48.564;9.302;2023-03-01T11:36:58;9.05;54.99
66119;DHT22;52912;48.564;9.302;2023-03-01T11:39:29;8.54;55.54
66119;DHT22;52912;48.564;9.302;2023-03-01T11:42:03;8.63;55.33
66119;DHT22;52912;48.564;9.302;2023-03-01T11:44:33;8.71;55.85
66119;DHT22;52912;48.564;9.302;2023-03-01T11:47:18;9.02;55.94
66119;DHT22;52912;48.564;9.302;2023-03-01T11:49:54;9.51;53.77
66119;DHT22;52912;48.564;9.302;2023-03-01T11:52:32;9.47;54.86
66119;DHT22;52912;48.564;9.302;2023-03-01T11:55:12;9.97;53.59
66119;DHT22;52912;48.564;9.302;2023-03-01T11:57:51;9.27;54.48
66119;DHT22;52912;48.564;9.302;2023-03-01T12:00:30;9.91;53.41
66119;DHT22;52912;48.564;9.302;2023-03-01T12:06:34;9.36;54.18
66119;DHT22;52912;48.564;9.302;2023-03-01T12:09:17;9.53;53.41
66119;DHT22;52912;48.564;9.302;2023-03-01T12:12:00;9.94;53.55
66119;DHT22;52912;48.564;9.302;2023-03-01T12:14:39;9.73;53.48
66119;DHT22;52912;48.564;9.302;2023-03-01T12:17:13;10.59;51.99
66119;DHT22;52912;48.564;9.302;2023-03-01T12:20:02;10.92;51.45
66119;DHT22;52912;48.564;9.302;2023-03-01T12:22:36;10.56;51.79
66119;DHT22;52912;48.564;9.302;2023-03-01T12:25:16;10.88;51.47
66119;DHT22;52912;48.564;9.302;2023-03-01T12:30:49;11.18;50.59
66119;DHT22;52912;48.564;9.302;2023-03-01T12:33:23;10.56;52.05
66119;DHT22;52912;48.564;9.302;2023-03-01T12:36:03;10.89;51.52
66119;DHT22;52912;48.564;9.302;2023-03-01T12:38:37;10.63;52.09
66119;DHT22;52912;48.564;9.302;2023-03-01T12:41:37;10.56;51.59
66119;DHT22;52912;48.564;9.302;2023-03-01T12:44:10;11.11;51.31
66119;DHT22;52912;48.564;9.302;2023-03-01T12:46:47;11.04;50.93
66119;DHT22;52912;48.564;9.302;2023-03-01T12:49:17;10.92;50.74
66119;DHT22;52912;48.564;9.302;2023-03-01T12:51:51;10.87;50.63
66119;DHT22;52912;48.564;9.302;2023-03-01T12:54:25;11.19;50.64
66119;DHT22;52912;48.564;9.302;2023-03-01T12:56:51;11.47;50.41
66119;DHT22;52912;48.564;9.302;2023-03-01T12:59:21;10.22;52.11
66119;DHT22;52912;48.564;9.302;2023-03-01T13:01:54;10.44;51.82
66119;DHT22;52912;48.564;9.302;2023-03-01T13:04:30;10.78;51.44
66119;DHT22;52912;48.564;9.302;2023-03-01T13:07:09;10.29;51.66
66119;DHT22;52912;48.564;9.302;2023-03-01T13:09:40;10.97;51.28
66119;DHT22;52912;48.564;9.302;2023-03-01T13:12:42;11.25;50.93
66119;DHT22;52912;48.564;9.302;2023-03-01T13:15:19;10.88;51.44
66119;DHT22;52912;48.564;9.302;2023-03-01T13:17:53;10.88;52.14
66119;DHT22;52912;48.564;9.302;2023-03-01T13:20:21;11.25;51.37
66119;DHT22;52912;48.564;9.302;2023-03-01T13:22:48;10.80;51.76
66119;DHT22;52912;48.564;9.302;2023-03-01T13:25:24;11.02;51.58
66119;DHT22;52912;48.564;9.302;2023-03-01T13:27:50;11.05;51.30
66119;DHT22;52912;48.564;9.302;2023-03-01T13:30:40;10.91;52.22
66119;DHT22;52912;48.564;9.302;2023-03-01T13:33:37;10.75;52.20
66119;DHT22;52912;48.564;9.302;2023-03-01T13:36:04;10.65;52.08
66119;DHT22;52912;48.564;9.302;2023-03-01T13:38:38;10.85;51.81
66119;DHT22;52912;48.564;9.302;2023-03-01T13:41:04;10.89;51.52
66119;DHT22;52912;48.564;9.302;2023-03-01T13:43:32;10.85;51.61
66119;DHT22;52912;48.564;9.302;2023-03-01T13:46:00;11.05;51.54
66119;DHT22;52912;48.564;9.302;2023-03-01T13:48:28;10.25;52.56
66119;DHT22;52912;48.564;9.302;2023-03-01T13:50:58;10.77;51.81
66119;DHT22;52912;48.564;9.302;2023-03-01T13:53:26;10.71;52.42
66119;DHT22;52912;48.564;9.302;2023-03-01T13:55:56;11.44;51.84
66119;DHT22;52912;48.564;9.302;2023-03-01T13:58:24;11.34;50.80
66119;DHT22;52912;48.564;9.302;2023-03-01T14:00:56;10.97;51.31
66119;DHT22;52912;48.564;9.302;2023-03-01T14:03:24;10.68;51.82
66119;DHT22;52912;48.564;9.302;2023-03-01T14:06:04;11.18;51.34
66119;DHT22;52912;48.564;9.302;2023-03-01T14:08:30;10.85;51.73
66119;DHT22;52912;48.564;9.302;2023-03-01T14:11:20;10.64;51.93
66119;DHT22;52912;48.564;9.302;2023-03-01T14:13:54;10.16;53.09
66119;DHT22;52912;48.564;9.302;2023-03-01T14:16:32;10.12;53.09
66119;DHT22;52912;48.564;9.302;2023-03-01T14:19:09;10.40;53.25
66119;DHT22;52912;48.564;9.302;2023-03-01T14:21:37;10.72;52.16
66119;DHT22;52912;48.564;9.302;2023-03-01T14:24:03;10.91;52.27
66119;DHT22;52912;48.564;9.302;2023-03-01T14:26:30;11.08;51.37
66119;DHT22;52912;48.564;9.302;2023-03-01T14:28:56;10.98;51.13
66119;DHT22;52912;48.564;9.302;2023-03-01T14:31:34;11.15;51.01
66119;DHT22;52912;48.564;9.302;2023-03-01T14:34:00;11.14;50.87
66119;DHT22;52912;48.564;9.302;2023-03-01T14:36:29;11.44;52.20
66119;DHT22;52912;48.564;9.302;2023-03-01T14:38:54;10.67;51.43
66119;DHT22;52912;48.564;9.302;2023-03-01T14:41:21;10.63;52.33
66119;DHT22;52912;48.564;9.302;2023-03-01T14:43:50;10.68;52.29
66119;DHT22;52912;48.564;9.302;2023-03-01T14:46:19;10.67;52.27
66119;DHT22;52912;48.564;9.302;2023-03-01T14:48:47;10.39;53.07
66119;DHT22;52912;48.564;9.302;2023-03-01T14:51:13;10.46;53.16
66119;DHT22;52912;48.564;9.302;2023-03-01T14:53:41;11.14;52.25
66119;DHT22;52912;48.564;9.302;2023-03-01T14:56:14;10.92;51.80
66119;DHT22;52912;48.564;9.302;2023-03-01T14:58:39;10.87;52.21
66119;DHT22;52912;48.564;9.302;2023-03-01T15:01:05;10.46;52.85
66119;DHT22;52912;48.564;9.302;2023-03-01T15:03:33;10.59;53.32
66119;DHT22;52912;48.564;9.302;2023-03-01T15:06:00;9.92;53.63
66119;DHT22;52912;48.564;9.302;2023-03-01T15:08:27;10.25;54.10
66119;DHT22;52912;48.564;9.302;2023-03-01T15:10:59;10.01;53.85
66119;DHT22;52912;48.564;9.302;2023-03-01T15:13:28;9.98;54.72
66119;DHT22;52912;48.564;9.302;2023-03-01T15:15:54;9.77;54.72
66119;DHT22;52912;48.564;9.302;2023-03-01T15:18:28;9.92;54.69
66119;DHT22;52912;48.564;9.302;2023-03-01T15:20:55;9.87;54.80
66119;DHT22;52912;48.564;9.302;2023-03-01T15:23:23;9.74;54.73
66119;DHT22;52912;48.564;9.302;2023-03-01T15:25:50;9.70;55.00
66119;DHT22;52912;48.564;9.302;2023-03-01T15:28:19;10.05;54.72
66119;DHT22;52912;48.564;9.302;2023-03-01T15:30:45;9.84;54.85
66119;DHT22;52912;48.564;9.302;2023-03-01T15:33:18;9.65;55.30
66119;DHT22;52912;48.564;9.302;2023-03-01T15:35:46;9.51;55.02
66119;DHT22;52912;48.564;9.302;2023-03-01T15:38:25;8.97;55.59
66119;DHT22;52912;48.564;9.302;2023-03-01T15:40:51;8.82;56.85
66119;DHT22;52912;48.564;9.302;2023-03-01T15:43:43;8.88;56.54
66119;DHT22;52912;48.564;9.302;2023-03-01T15:46:27;8.70;56.82
66119;DHT22;52912;48.564;9.302;2023-03-01T15:48:55;8.63;57.57
66119;DHT22;52912;48.564;9.302;2023-03-01T15:51:27;8.42;57.64
66119;DHT22;52912;48.564;9.302;2023-03-01T15:53:53;8.33;57.71